createdAt,value
2023-05-05T00:01:09.274Z,1.60
2023-05-05T00:03:36.296Z,1.77
2023-05-05T00:06:04.322Z,1.70
2023-05-05T00:08:31.110Z,1.90
2023-05-05T00:10:57.783Z,1.67
2023-05-05T00:13:24.760Z,2.03
2023-05-05T00:15:52.584Z,1.70
2023-05-05T00:18:19.672Z,1.73
2023-05-05T00:20:47.568Z,1.77
2023-05-05T00:23:17.885Z,1.52
2023-05-05T00:25:44.599Z,1.70
2023-05-05T00:28:11.543Z,1.52
2023-05-05T00:30:39.905Z,1.65
2023-05-05T00:33:06.726Z,1.60
2023-05-05T00:35:33.751Z,1.75
2023-05-05T00:38:00.484Z,1.90
2023-05-05T00:40:28.320Z,1.80
2023-05-05T00:42:54.956Z,1.92
2023-05-05T00:45:21.629Z,1.83
2023-05-05T00:47:51.540Z,1.90
2023-05-05T00:50:23.749Z,1.65
2023-05-05T00:52:51.810Z,1.58
2023-05-05T00:55:19.084Z,1.90
2023-05-05T00:57:45.978Z,2.17
2023-05-05T01:00:13.105Z,1.75
2023-05-05T01:02:40.183Z,1.52
2023-05-05T01:05:10.954Z,1.80
2023-05-05T01:10:36.936Z,1.80
2023-05-05T01:13:15.646Z,1.75
2023-05-05T01:15:50.058Z,1.90
2023-05-05T01:18:38.166Z,1.70
2023-05-05T01:21:16.294Z,1.90
2023-05-05T01:24:00.938Z,2.13
2023-05-05T01:27:03.058Z,1.98
2023-05-05T01:29:51.409Z,1.77
2023-05-05T01:32:25.573Z,1.67
2023-05-05T01:35:05.410Z,2.00
2023-05-05T01:37:55.636Z,1.50
2023-05-05T01:40:26.813Z,2.10
2023-05-05T01:42:55.489Z,1.58
2023-05-05T01:45:28.076Z,2.10
2023-05-05T01:47:56.401Z,2.38
2023-05-05T01:50:24.522Z,1.95
2023-05-05T01:52:52.706Z,1.90
2023-05-05T01:55:20.744Z,2.08
2023-05-05T01:57:49.045Z,1.73
2023-05-05T02:00:18.001Z,1.92
2023-05-05T02:02:49.728Z,2.20
2023-05-05T02:05:19.509Z,2.20
2023-05-05T02:07:46.885Z,2.10
2023-05-05T02:10:14.449Z,1.50
2023-05-05T02:12:44.256Z,2.10
2023-05-05T02:15:12.652Z,1.80
2023-05-05T02:17:42.277Z,1.98
2023-05-05T02:20:11.840Z,2.00
2023-05-05T02:22:38.660Z,1.80
2023-05-05T02:25:06.165Z,1.70
2023-05-05T02:27:35.984Z,1.75
2023-05-05T02:30:08.604Z,2.50
2023-05-05T02:32:50.474Z,2.53
2023-05-05T02:35:22.489Z,2.33
2023-05-05T02:38:01.826Z,1.75
2023-05-05T02:40:35.253Z,2.28
2023-05-05T02:43:06.855Z,1.88
2023-05-05T02:45:33.844Z,1.63
2023-05-05T02:48:04.216Z,2.17
2023-05-05T02:50:34.240Z,2.10
2023-05-05T02:53:12.024Z,1.90
2023-05-05T02:55:50.612Z,1.70
2023-05-05T02:58:29.095Z,1.88
2023-05-05T03:01:16.050Z,1.55
2023-05-05T03:03:59.119Z,1.40
2023-05-05T03:06:28.545Z,1.85
2023-05-05T03:09:25.218Z,1.58
2023-05-05T03:12:03.918Z,1.77
2023-05-05T03:14:41.901Z,2.22
2023-05-05T03:17:12.567Z,1.50
2023-05-05T03:19:44.596Z,1.60
2023-05-05T03:22:11.603Z,1.85
2023-05-05T03:24:41.792Z,1.73
2023-05-05T03:27:10.278Z,1.90
2023-05-05T03:29:39.233Z,1.80
2023-05-05T03:32:10.440Z,1.60
2023-05-05T03:34:37.866Z,1.85
2023-05-05T03:37:05.736Z,1.85
2023-05-05T03:39:32.552Z,1.80
2023-05-05T03:41:59.792Z,1.77
2023-05-05T03:44:30.550Z,1.55
2023-05-05T03:46:57.200Z,1.90
2023-05-05T03:49:24.261Z,1.88
2023-05-05T03:51:51.784Z,1.63
2023-05-05T03:54:18.385Z,1.52
2023-05-05T03:56:45.059Z,1.80
2023-05-05T03:59:11.731Z,1.67
2023-05-05T04:01:38.694Z,2.00
2023-05-05T04:04:05.664Z,1.60
2023-05-05T04:06:32.736Z,1.70
2023-05-05T04:08:59.277Z,1.63
2023-05-05T04:11:26.260Z,1.58
2023-05-05T04:13:54.681Z,2.20
2023-05-05T04:16:21.986Z,1.75
2023-05-05T04:18:49.342Z,1.67
2023-05-05T04:21:17.423Z,2.00
2023-05-05T04:23:44.544Z,1.73
2023-05-05T04:26:11.373Z,2.10
2023-05-05T04:28:38.078Z,2.08
2023-05-05T04:31:05.229Z,1.80
2023-05-05T04:33:35.736Z,2.00
2023-05-05T04:36:02.770Z,2.10
2023-05-05T04:38:29.578Z,1.80
2023-05-05T04:40:56.499Z,1.75
2023-05-05T04:43:23.181Z,1.70
2023-05-05T04:45:56.315Z,1.88
2023-05-05T04:48:27.275Z,2.50
2023-05-05T04:50:53.955Z,2.25
2023-05-05T04:53:20.519Z,2.40
2023-05-05T04:55:47.215Z,2.22
2023-05-05T04:58:13.797Z,2.50
2023-05-05T05:00:40.725Z,2.70
2023-05-05T05:03:08.255Z,2.17
2023-05-05T05:05:34.861Z,2.80
2023-05-05T05:08:01.737Z,4.97
2023-05-05T05:10:28.692Z,5.05
2023-05-05T05:12:55.376Z,3.20
2023-05-05T05:15:22.063Z,2.50
2023-05-05T05:17:48.797Z,2.40
2023-05-05T05:20:15.548Z,2.55
2023-05-05T05:22:42.261Z,2.50
2023-05-05T05:25:13.515Z,2.50
2023-05-05T05:27:41.656Z,2.40
2023-05-05T05:30:09.812Z,2.35
2023-05-05T05:32:36.832Z,2.65
2023-05-05T05:35:03.966Z,2.45
2023-05-05T05:37:31.474Z,2.10
2023-05-05T05:39:59.093Z,2.65
2023-05-05T05:42:27.049Z,2.38
2023-05-05T05:44:53.779Z,2.25
2023-05-05T05:47:20.437Z,2.30
2023-05-05T05:49:47.122Z,2.35
2023-05-05T05:52:13.868Z,2.33
2023-05-05T05:54:40.960Z,2.08
2023-05-05T05:57:08.643Z,1.90
2023-05-05T05:59:35.360Z,1.67
2023-05-05T06:02:02.334Z,1.60
2023-05-05T06:04:30.885Z,1.40
2023-05-05T06:06:57.601Z,1.33
2023-05-05T06:09:25.249Z,1.60
2023-05-05T06:11:53.381Z,1.33
2023-05-05T06:14:20.706Z,1.40
2023-05-05T06:16:47.664Z,0.95
2023-05-05T06:21:45.429Z,1.10
2023-05-05T06:24:12.082Z,1.20
2023-05-05T06:26:38.825Z,1.50
2023-05-05T06:29:05.469Z,1.50
2023-05-05T06:31:32.180Z,1.85
2023-05-05T06:33:58.817Z,2.63
2023-05-05T06:36:25.509Z,1.92
2023-05-05T06:38:52.228Z,2.10
2023-05-05T06:41:18.858Z,2.20
2023-05-05T06:43:45.945Z,1.45
2023-05-05T06:46:13.863Z,2.00
2023-05-05T06:48:40.593Z,1.77
2023-05-05T06:51:07.290Z,1.55
2023-05-05T06:53:33.923Z,2.45
2023-05-05T06:56:00.461Z,2.20
2023-05-05T06:58:27.131Z,1.55
2023-05-05T07:00:54.160Z,2.45
2023-05-05T07:03:20.920Z,1.45
2023-05-05T07:05:47.607Z,1.73
2023-05-05T07:08:14.795Z,2.13
2023-05-05T07:10:41.853Z,1.50
2023-05-05T07:13:08.556Z,2.13
2023-05-05T07:15:35.542Z,1.73
2023-05-05T07:18:02.343Z,1.40
2023-05-05T07:20:29.000Z,1.10
2023-05-05T07:22:55.926Z,1.55
2023-05-05T07:25:22.567Z,1.20
2023-05-05T07:27:49.233Z,1.58
2023-05-05T07:30:18.468Z,1.40
2023-05-05T07:32:46.109Z,1.38
2023-05-05T07:35:12.913Z,1.23
2023-05-05T07:37:39.570Z,0.98
2023-05-05T07:40:07.161Z,1.25
2023-05-05T07:42:33.880Z,1.20
2023-05-05T07:45:00.702Z,1.20
2023-05-05T07:47:27.327Z,1.17
2023-05-05T07:49:54.421Z,1.08
2023-05-05T07:52:30.002Z,0.90
2023-05-05T07:55:01.035Z,1.45
2023-05-05T07:57:28.414Z,0.73
2023-05-05T07:59:55.128Z,0.82
2023-05-05T08:02:21.952Z,0.88
2023-05-05T08:04:50.073Z,0.70
2023-05-05T08:07:16.756Z,0.82
2023-05-05T08:09:44.045Z,0.90
2023-05-05T08:12:12.262Z,0.73
2023-05-05T08:14:40.464Z,0.93
2023-05-05T08:17:07.452Z,0.77
2023-05-05T08:19:34.202Z,0.80
2023-05-05T08:22:01.591Z,0.77
2023-05-05T08:24:28.567Z,0.85
2023-05-05T08:26:56.152Z,0.60
2023-05-05T08:29:23.223Z,0.60
2023-05-05T08:31:49.866Z,0.57
2023-05-05T08:34:16.508Z,0.57
2023-05-05T08:36:44.062Z,0.50
2023-05-05T08:39:10.753Z,0.50
2023-05-05T08:41:37.424Z,0.63
2023-05-05T08:44:04.115Z,0.40
2023-05-05T08:46:31.153Z,0.50
2023-05-05T08:48:58.792Z,0.63
2023-05-05T08:51:31.377Z,0.40
2023-05-05T08:54:02.614Z,0.88
2023-05-05T08:56:36.197Z,0.63
2023-05-05T08:59:03.248Z,0.70
2023-05-05T09:01:32.234Z,0.80
2023-05-05T09:03:59.220Z,0.63
2023-05-05T09:06:27.357Z,0.82
2023-05-05T09:08:54.534Z,0.70
2023-05-05T09:11:22.590Z,0.73
2023-05-05T09:13:49.830Z,0.50
2023-05-05T09:16:16.507Z,0.55
2023-05-05T09:18:43.322Z,0.68
2023-05-05T09:21:24.610Z,0.60
2023-05-05T09:24:08.602Z,0.77
2023-05-05T09:26:43.488Z,0.65
2023-05-05T09:29:17.115Z,0.77
2023-05-05T09:31:43.917Z,0.70
2023-05-05T09:34:15.853Z,0.65
2023-05-05T09:36:44.744Z,0.50
2023-05-05T09:39:11.584Z,0.60
2023-05-05T09:41:43.578Z,0.55
2023-05-05T09:44:11.537Z,0.57
2023-05-05T09:46:49.042Z,0.80
2023-05-05T09:49:20.025Z,0.40
2023-05-05T09:51:47.616Z,0.40
2023-05-05T09:54:24.060Z,1.10
2023-05-05T09:56:52.528Z,0.60
2023-05-05T09:59:19.896Z,0.63
2023-05-05T10:01:47.431Z,0.55
2023-05-05T10:04:28.512Z,0.65
2023-05-05T10:06:58.885Z,0.50
2023-05-05T10:11:53.840Z,4.38
2023-05-05T10:14:20.786Z,0.90
2023-05-05T10:16:50.651Z,0.85
2023-05-05T10:19:21.329Z,1.00
2023-05-05T10:21:51.169Z,0.57
2023-05-05T10:24:40.541Z,0.50
2023-05-05T10:27:20.042Z,0.80
2023-05-05T10:30:01.297Z,0.90
2023-05-05T10:32:56.066Z,0.60
2023-05-05T10:35:28.570Z,1.08
2023-05-05T10:37:55.964Z,0.60
2023-05-05T10:40:22.680Z,0.40
2023-05-05T10:42:50.860Z,0.50
2023-05-05T10:45:17.688Z,0.73
2023-05-05T10:47:44.581Z,0.50
2023-05-05T10:50:21.750Z,0.70
2023-05-05T10:53:24.083Z,0.95
2023-05-05T10:56:10.747Z,0.85
2023-05-05T10:58:51.649Z,0.70
2023-05-05T11:01:33.427Z,0.75
2023-05-05T11:04:35.873Z,0.70
2023-05-05T11:07:27.394Z,0.57
2023-05-05T11:09:55.999Z,0.57
2023-05-05T11:12:22.643Z,0.70
2023-05-05T11:15:27.611Z,0.88
2023-05-05T11:17:55.652Z,0.57
2023-05-05T11:20:40.542Z,0.52
2023-05-05T11:23:07.325Z,0.88
2023-05-05T11:25:37.555Z,0.73
2023-05-05T11:28:17.935Z,0.55
2023-05-05T11:30:57.180Z,0.80
2023-05-05T11:33:38.833Z,0.45
2023-05-05T11:36:07.155Z,0.60
2023-05-05T11:38:53.070Z,0.77
2023-05-05T11:41:32.026Z,0.57
2023-05-05T11:44:16.612Z,0.50
2023-05-05T11:46:52.390Z,0.60
2023-05-05T11:49:32.090Z,0.77
2023-05-05T11:52:02.597Z,0.63
2023-05-05T11:54:30.243Z,0.65
2023-05-05T11:57:08.395Z,0.50
2023-05-05T11:59:40.252Z,0.45
2023-05-05T12:02:06.965Z,0.70
2023-05-05T12:04:33.658Z,0.57
2023-05-05T12:07:00.605Z,0.75
2023-05-05T12:09:27.552Z,0.50
2023-05-05T12:11:58.386Z,0.50
2023-05-05T12:14:25.909Z,0.50
2023-05-05T12:17:07.101Z,0.60
2023-05-05T12:19:33.758Z,0.50
2023-05-05T12:22:04.704Z,0.65
2023-05-05T12:24:31.544Z,0.70
2023-05-05T12:27:08.792Z,0.57
2023-05-05T12:29:35.457Z,0.60
2023-05-05T12:32:02.164Z,0.52
2023-05-05T12:34:29.068Z,0.30
2023-05-05T12:36:55.954Z,0.57
2023-05-05T12:39:22.544Z,0.50
2023-05-05T12:41:49.691Z,0.60
2023-05-05T12:44:16.578Z,0.70
2023-05-05T12:46:47.455Z,0.60
2023-05-05T12:49:14.796Z,0.57
2023-05-05T12:51:56.956Z,0.70
2023-05-05T12:54:24.972Z,0.70
2023-05-05T12:56:51.643Z,0.70
2023-05-05T12:59:21.085Z,0.80
2023-05-05T13:01:58.418Z,0.73
2023-05-05T13:04:27.345Z,0.60
2023-05-05T13:07:11.088Z,0.55
2023-05-05T13:09:38.290Z,0.60
2023-05-05T13:12:05.164Z,0.77
2023-05-05T13:14:32.395Z,0.47
2023-05-05T13:16:59.069Z,0.70
2023-05-05T13:19:25.785Z,0.50
2023-05-05T13:21:53.133Z,0.50
2023-05-05T13:24:28.745Z,0.70
2023-05-05T13:27:02.923Z,0.47
2023-05-05T13:29:31.633Z,0.47
2023-05-05T13:31:58.830Z,0.68
2023-05-05T13:34:25.977Z,0.70
2023-05-05T13:36:52.705Z,0.52
2023-05-05T13:39:19.366Z,0.60
2023-05-05T13:41:46.055Z,0.68
2023-05-05T13:44:14.915Z,0.88
2023-05-05T13:46:42.710Z,0.50
2023-05-05T13:49:09.547Z,0.80
2023-05-05T13:51:36.970Z,0.60
2023-05-05T13:54:03.915Z,0.60
2023-05-05T13:56:30.681Z,0.40
2023-05-05T13:58:57.317Z,0.50
2023-05-05T14:01:24.063Z,1.13
2023-05-05T14:03:50.932Z,0.63
2023-05-05T14:06:17.649Z,0.55
2023-05-05T14:08:44.406Z,0.30
2023-05-05T14:11:11.110Z,0.50
2023-05-05T14:13:38.052Z,0.30
2023-05-05T14:16:05.760Z,0.68
2023-05-05T14:18:32.583Z,0.50
2023-05-05T14:20:59.186Z,0.40
2023-05-05T14:23:25.858Z,0.60
2023-05-05T14:25:52.515Z,0.60
2023-05-05T14:28:19.221Z,0.70
2023-05-05T14:30:46.653Z,0.50
2023-05-05T14:33:13.236Z,0.80
2023-05-05T14:35:39.981Z,0.80
2023-05-05T14:38:06.578Z,0.60
2023-05-05T14:40:33.233Z,0.68
2023-05-05T14:43:00.168Z,0.63
2023-05-05T14:45:29.436Z,0.60
2023-05-05T14:47:56.117Z,0.60
2023-05-05T14:50:22.715Z,0.68
2023-05-05T14:52:49.342Z,0.60
2023-05-05T14:55:15.958Z,0.60
2023-05-05T14:57:42.585Z,0.65
2023-05-05T15:00:11.262Z,0.60
2023-05-05T15:02:38.039Z,0.75
2023-05-05T15:05:05.109Z,0.70
2023-05-05T15:07:31.794Z,0.65
2023-05-05T15:09:58.452Z,0.70
2023-05-05T15:12:27.621Z,0.80
2023-05-05T15:14:55.414Z,0.60
2023-05-05T15:17:22.304Z,0.88
2023-05-05T15:19:49.019Z,0.77
2023-05-05T15:22:15.709Z,0.50
2023-05-05T15:24:42.366Z,0.70
2023-05-05T15:27:09.244Z,0.63
2023-05-05T15:29:35.885Z,1.65
2023-05-05T15:32:02.533Z,0.85
2023-05-05T15:34:29.162Z,0.80
2023-05-05T15:36:56.074Z,0.82
2023-05-05T15:39:22.762Z,0.60
2023-05-05T15:41:49.395Z,0.70
2023-05-05T15:44:16.048Z,0.77
2023-05-05T15:46:42.719Z,0.60
2023-05-05T15:49:09.414Z,0.85
2023-05-05T15:51:36.202Z,0.60
2023-05-05T15:54:02.888Z,0.70
2023-05-05T15:56:29.711Z,0.70
2023-05-05T15:58:56.891Z,0.85
2023-05-05T16:01:23.503Z,0.85
2023-05-05T16:03:50.359Z,0.60
2023-05-05T16:06:16.933Z,1.20
2023-05-05T16:08:43.620Z,0.80
2023-05-05T16:11:10.635Z,0.80
2023-05-05T16:13:39.091Z,0.90
2023-05-05T16:16:06.835Z,0.50
2023-05-05T16:18:33.690Z,0.52
2023-05-05T16:21:00.331Z,0.60
2023-05-05T16:23:26.926Z,0.77
2023-05-05T16:25:53.494Z,0.40
2023-05-05T16:28:20.108Z,0.60
2023-05-05T16:30:46.880Z,0.70
2023-05-05T16:33:13.669Z,0.70
2023-05-05T16:35:40.416Z,0.55
2023-05-05T16:38:07.024Z,0.68
2023-05-05T16:40:37.101Z,0.73
2023-05-05T16:43:04.473Z,0.63
2023-05-05T16:45:31.352Z,0.50
2023-05-05T16:47:57.961Z,0.77
2023-05-05T16:50:24.606Z,0.60
2023-05-05T16:52:51.425Z,0.60
2023-05-05T16:55:18.256Z,0.60
2023-05-05T16:57:44.854Z,0.55
2023-05-05T17:00:12.186Z,0.70
2023-05-05T17:02:38.824Z,0.70
2023-05-05T17:05:06.236Z,0.68
2023-05-05T17:07:33.105Z,0.60
2023-05-05T17:09:59.748Z,0.70
2023-05-05T17:12:26.409Z,0.82
2023-05-05T17:14:53.029Z,1.30
2023-05-05T17:17:19.709Z,1.25
2023-05-05T17:19:46.292Z,0.95
2023-05-05T17:22:12.968Z,0.80
2023-05-05T17:24:39.617Z,0.80
2023-05-05T17:27:06.446Z,0.90
2023-05-05T17:29:36.732Z,0.75
2023-05-05T17:32:03.684Z,0.60
2023-05-05T17:34:30.439Z,0.80
2023-05-05T17:36:57.018Z,0.68
2023-05-05T17:39:23.745Z,0.80
2023-05-05T17:41:51.514Z,0.73
2023-05-05T17:44:18.105Z,0.80
2023-05-05T17:46:44.666Z,0.70
2023-05-05T17:49:11.237Z,1.10
2023-05-05T17:51:38.505Z,0.60
2023-05-05T17:54:05.369Z,1.00
2023-05-05T17:56:31.925Z,1.27
2023-05-05T17:58:58.527Z,1.17
2023-05-05T18:01:26.569Z,0.98
2023-05-05T18:03:53.359Z,1.00
2023-05-05T18:06:20.126Z,1.40
2023-05-05T18:08:46.770Z,1.55
2023-05-05T18:11:13.435Z,1.73
2023-05-05T18:13:40.140Z,1.38
2023-05-05T18:16:07.138Z,1.33
2023-05-05T18:18:35.323Z,1.38
2023-05-05T18:21:01.974Z,1.10
2023-05-05T18:23:28.698Z,0.90
2023-05-05T18:25:55.384Z,0.98
2023-05-05T18:28:21.956Z,1.30
2023-05-05T18:30:48.729Z,1.33
2023-05-05T18:33:15.951Z,1.25
2023-05-05T18:35:42.521Z,1.10
2023-05-05T18:38:09.135Z,1.15
2023-05-05T18:40:35.774Z,1.33
2023-05-05T18:43:02.367Z,1.10
2023-05-05T18:45:29.047Z,1.00
2023-05-05T18:47:56.369Z,1.05
2023-05-05T18:50:23.139Z,1.10
2023-05-05T18:52:49.733Z,1.00
2023-05-05T18:55:16.325Z,1.17
2023-05-05T18:57:42.915Z,1.00
2023-05-05T19:00:10.295Z,0.85
2023-05-05T19:02:37.710Z,1.10
2023-05-05T19:05:04.895Z,1.10
2023-05-05T19:07:34.898Z,1.38
2023-05-05T19:10:04.298Z,1.10
2023-05-05T19:12:30.966Z,1.58
2023-05-05T19:14:57.833Z,1.10
2023-05-05T19:17:24.393Z,1.00
2023-05-05T19:19:51.664Z,1.20
2023-05-05T19:22:18.326Z,1.17
2023-05-05T19:24:44.925Z,1.00
2023-05-05T19:27:15.472Z,1.15
2023-05-05T19:29:43.213Z,0.82
2023-05-05T19:32:09.869Z,1.10
2023-05-05T19:34:36.729Z,1.05
2023-05-05T19:37:03.360Z,1.30
2023-05-05T19:39:30.046Z,1.10
2023-05-05T19:41:56.598Z,1.08
2023-05-05T19:44:23.784Z,0.98
2023-05-05T19:46:52.658Z,1.10
2023-05-05T19:49:19.428Z,1.17
2023-05-05T19:51:47.600Z,1.02
2023-05-05T19:54:14.329Z,1.05
2023-05-05T19:56:41.001Z,0.85
2023-05-05T19:59:07.654Z,1.30
2023-05-05T20:01:35.216Z,1.02
2023-05-05T20:04:03.243Z,1.20
2023-05-05T20:06:29.853Z,1.10
2023-05-05T20:08:56.472Z,0.88
2023-05-05T20:11:25.772Z,1.17
2023-05-05T20:13:53.025Z,1.00
2023-05-05T20:16:20.043Z,1.00
2023-05-05T20:18:47.004Z,1.45
2023-05-05T20:21:14.758Z,1.10
2023-05-05T20:23:42.798Z,1.05
2023-05-05T20:26:09.639Z,0.98
2023-05-05T20:28:36.868Z,1.35
2023-05-05T20:31:03.592Z,1.23
2023-05-05T20:33:30.364Z,1.13
2023-05-05T20:35:57.148Z,0.90
2023-05-05T20:38:23.946Z,1.08
2023-05-05T20:40:52.043Z,1.15
2023-05-05T20:43:19.648Z,1.02
2023-05-05T20:45:46.544Z,1.48
2023-05-05T20:48:13.147Z,1.25
2023-05-05T20:50:42.851Z,1.30
2023-05-05T20:53:13.932Z,1.03
2023-05-05T20:55:41.032Z,1.45
2023-05-05T20:58:07.637Z,1.10
2023-05-05T21:00:34.416Z,1.20
2023-05-05T21:03:02.601Z,1.13
2023-05-05T21:05:29.508Z,0.93
2023-05-05T21:07:57.269Z,0.98
2023-05-05T21:10:25.050Z,1.42
2023-05-05T21:12:51.766Z,1.50
2023-05-05T21:15:18.419Z,1.40
2023-05-05T21:17:45.141Z,1.30
2023-05-05T21:20:12.495Z,1.50
2023-05-05T21:22:39.383Z,1.45
2023-05-05T21:25:16.760Z,1.55
2023-05-05T21:27:43.854Z,1.05
2023-05-05T21:30:11.773Z,1.30
2023-05-05T21:32:39.740Z,1.30
2023-05-05T21:35:07.905Z,1.23
2023-05-05T21:37:34.924Z,1.75
2023-05-05T21:40:01.693Z,1.42
2023-05-05T21:42:31.685Z,1.40
2023-05-05T21:44:58.291Z,1.67
2023-05-05T21:47:24.977Z,1.52
2023-05-05T21:49:51.571Z,1.58
2023-05-05T21:52:18.222Z,1.30
2023-05-05T21:54:44.990Z,1.50
2023-05-05T21:57:11.659Z,1.42
2023-05-05T21:59:38.317Z,1.27
2023-05-05T22:02:04.983Z,1.10
2023-05-05T22:04:31.583Z,1.50
2023-05-05T22:06:58.258Z,1.13
2023-05-05T22:09:24.844Z,1.30
2023-05-05T22:11:51.514Z,1.80
2023-05-05T22:14:18.158Z,1.27
2023-05-05T22:16:44.867Z,1.40
2023-05-05T22:19:11.570Z,1.70
2023-05-05T22:21:38.178Z,1.35
2023-05-05T22:24:05.302Z,1.80
2023-05-05T22:26:31.871Z,1.52
2023-05-05T22:28:58.476Z,1.95
2023-05-05T22:31:25.094Z,1.40
2023-05-05T22:33:51.634Z,1.77
2023-05-05T22:36:18.303Z,1.60
2023-05-05T22:38:44.933Z,1.42
2023-05-05T22:41:11.558Z,1.60
2023-05-05T22:43:38.897Z,1.30
2023-05-05T22:46:05.809Z,1.67
2023-05-05T22:48:32.416Z,1.40
2023-05-05T22:50:59.829Z,1.77
2023-05-05T22:53:26.549Z,1.60
2023-05-05T22:55:53.173Z,1.15
2023-05-05T22:58:20.905Z,1.50
2023-05-05T23:00:47.523Z,1.70
2023-05-05T23:03:14.439Z,1.75
2023-05-05T23:05:41.123Z,1.80
2023-05-05T23:08:07.716Z,2.00
2023-05-05T23:10:34.344Z,1.95
2023-05-05T23:13:01.033Z,2.10
2023-05-05T23:15:28.630Z,2.15
2023-05-05T23:17:55.428Z,2.65
2023-05-05T23:20:22.201Z,1.90
2023-05-05T23:22:48.899Z,2.40
2023-05-05T23:25:15.631Z,2.10
2023-05-05T23:27:42.234Z,2.40
2023-05-05T23:30:09.584Z,2.42
2023-05-05T23:32:36.392Z,2.40
2023-05-05T23:35:03.137Z,2.40
2023-05-05T23:37:29.766Z,1.95
2023-05-05T23:39:56.787Z,2.45
2023-05-05T23:42:24.444Z,2.38
2023-05-05T23:44:51.084Z,2.45
2023-05-05T23:47:17.798Z,2.30
2023-05-05T23:49:44.436Z,2.15
2023-05-05T23:52:11.278Z,2.58
2023-05-05T23:54:37.969Z,2.35
2023-05-05T23:57:04.660Z,2.33
2023-05-05T23:59:31.233Z,2.53
